Home Su
 

Esercitazione sulle isoterme

Data: 
Nome: 
Cognome: 

Premessa.

L'esercitazione consiste nell'interpretare i messaggi METAR sotto riprodotti, limitatamente alla temperatura effettiva, e nel riporto del dato ottenuto sulla mappa dell'Italia meridionale in corrispondenza della localitÓ ove la misurazione Ŕ stata effettuata. Infine, lo Studente dovrÓ tracciare le opportune isoterme. (Isoterme: linee congiungenti punti aventi la medesima temperatura).

Esempio:

LIBD 160950Z 29005KT 4000 RA BKN015 BKN070 15/15 Q1016= (160950)

Messaggio METAR della stazione meteorologica di Bari Palese (LIBD). Temperatura osservata: 15░C.

ITALIA SUD/ADRIATICO E SICILIA

-- METAR --

LIBD 160950Z 29005KT 4000 RA BKN015 BKN070 15/15 Q1016= (160950)

LIBV 161000Z 35005KT 6000 SCT040 BKN070 14/13 Q1014 RMK OVC WHT=(161000)

LIBR 161000Z 34005KT 6000 FEW020CB SCT040 BKN100 20/11 Q1014 RERA NOSIG RMK OVC WIND THR14 33005KT WIND THR32 31009KT WHT=(161000)

LIBH 161000Z 32008KT 9999 BKN025 OVC090 16/15 Q1014 RMK OVC QUK 1 QUL 0 VIS MAR 12 KM= (161000)

LIBG 160934Z 01010KT 8000 FEW015 SCT030 BKN070 OVC090 17/13 Q1015=(161000)

LIBN 161000Z 00000KT 9999 SCT030 SCT070 16/16 Q1014 RMK BKN AMB=(161000)

LIBY 161000Z 04008KT 6000 FEW020 BKN090 16/15 Q1013 RMK OVC QUK / QUL / VIS MAR 6 KM= (161000)

LIBQ 161000Z 00000KT 9999 BKN010 09/09 Q1017 RMK BKN MON LIB VAL NIL= (161000)

LIQK 160900Z 34002KT CAVOK 19/15 Q1013 RMK SCT200 QUK1 QUL0 VIS MAR 20KM= (160900)

LICA 160950Z VRB02KT 9999 FEW020 SCT090 20/17 Q1014= (161000)

LIBC 161000Z 36008KT 9999 SCT018 SCT080 14/12 Q1015= (161000)

LICR 160945Z 05012KT 9000 FEW015 SCT025 BKN070 23/17 Q1013 RMK SCTQUK2 QUL1 NE WT15 02008KT WT33 05006KT= (161000)


Questa pagina Ŕ stata realizzata da Vittorio Villasmunta

Ultimo aggiornamento: 29/05/16